Terminal Aerodrome Forecast
Issued by NWS Bismarck, ND

Home | Current Version | Previous Version | Graphics & Text | Print | Product List | Glossary On
Versions: 1 2 3 4 5 6 7 8 9 10 11 12 13 14 15 16 17 18 19 20 21 22
000
FTUS43 KBIS 230534
TAFBIS
TAF
KBIS 230534Z 2306/2406 34014G22KT P6SM SCT015 OVC035
     FM230800 36012G20KT P6SM VCSH BKN015 OVC030
     FM231000 35010KT P6SM BKN008 OVC020
     FM231800 01012KT P6SM BKN020 BKN035
     FM232100 02014KT P6SM VCSH BKN030 OVC120
     FM240000 02014G20KT 6SM -SHRA BKN020 OVC110
     FM240400 02014G20KT P6SM -SHRA BKN008 OVC035=

USA.gov is the U.S. government's official web portal to all federal, state and local government web resources and services.